createdAt,value
2023-05-20T00:02:09.936Z,98998.78
2023-05-20T00:04:36.532Z,98996.75
2023-05-20T00:07:03.885Z,99002.56
2023-05-20T00:09:30.426Z,98998.31
2023-05-20T00:11:56.937Z,98991.53
2023-05-20T00:14:23.542Z,98990.25
2023-05-20T00:16:50.170Z,98988.59
2023-05-20T00:19:18.678Z,98990.91
2023-05-20T00:21:45.255Z,98988.84
2023-05-20T00:24:11.777Z,98984.78
2023-05-20T00:26:38.306Z,98979.88
2023-05-20T00:29:04.817Z,98987.38
2023-05-20T00:31:31.372Z,98985.50
2023-05-20T00:33:57.923Z,98986.72
2023-05-20T00:36:24.496Z,98991.34
2023-05-20T00:38:51.370Z,98989.88
2023-05-20T00:41:17.886Z,98983.22
2023-05-20T00:43:44.396Z,98986.00
2023-05-20T00:46:10.967Z,98988.56
2023-05-20T00:48:41.687Z,98986.31
2023-05-20T00:51:08.263Z,98994.50
2023-05-20T00:53:35.476Z,98987.22
2023-05-20T00:56:02.574Z,98987.84
2023-05-20T00:58:29.074Z,98996.84
2023-05-20T01:00:55.703Z,98991.06
2023-05-20T01:03:22.528Z,98986.66
2023-05-20T01:05:49.226Z,98977.56
2023-05-20T01:08:15.948Z,98995.81
2023-05-20T01:10:43.122Z,98988.16
2023-05-20T01:13:11.544Z,98989.72
2023-05-20T01:15:38.276Z,98986.84
2023-05-20T01:18:06.155Z,98983.59
2023-05-20T01:20:33.194Z,98981.00
2023-05-20T01:23:00.003Z,98976.41
2023-05-20T01:25:26.635Z,98974.81
2023-05-20T01:27:54.233Z,98982.31
2023-05-20T01:30:21.189Z,98966.50
2023-05-20T01:32:52.874Z,98971.59
2023-05-20T01:35:20.761Z,98973.88
2023-05-20T01:37:47.282Z,98963.72
2023-05-20T01:40:15.136Z,98967.47
2023-05-20T01:42:42.150Z,98962.06
2023-05-20T01:45:09.010Z,98962.25
2023-05-20T01:47:35.586Z,98955.50
2023-05-20T01:50:02.113Z,98958.13
2023-05-20T01:52:28.660Z,98959.75
2023-05-20T01:54:55.256Z,98951.09
2023-05-20T01:57:22.013Z,98947.34
2023-05-20T01:59:48.546Z,98955.00
2023-05-20T02:02:15.407Z,98945.06
2023-05-20T02:04:44.011Z,98948.84
2023-05-20T02:07:10.524Z,98953.22
2023-05-20T02:09:37.729Z,98942.81
2023-05-20T02:12:04.426Z,98950.34
2023-05-20T02:14:31.054Z,98949.53
2023-05-20T02:16:57.798Z,98951.34
2023-05-20T02:19:26.883Z,98945.03
2023-05-20T02:21:53.491Z,98940.63
2023-05-20T02:24:21.303Z,98947.16
2023-05-20T02:26:49.574Z,98942.31
2023-05-20T02:29:16.204Z,98948.94
2023-05-20T02:31:42.738Z,98947.00
2023-05-20T02:34:09.315Z,98946.03
2023-05-20T02:36:36.309Z,98943.88
2023-05-20T02:39:02.928Z,98947.47
2023-05-20T02:41:29.594Z,98931.97
2023-05-20T02:43:56.141Z,98941.78
2023-05-20T02:46:22.698Z,98931.97
2023-05-20T02:48:49.313Z,98933.13
2023-05-20T02:51:16.104Z,98942.59
2023-05-20T02:53:42.649Z,98937.75
2023-05-20T02:56:09.158Z,98937.75
2023-05-20T02:58:35.724Z,98944.09
2023-05-20T03:01:03.503Z,98931.97
2023-05-20T03:03:30.081Z,98942.13
2023-05-20T03:05:56.596Z,98937.91
2023-05-20T03:08:23.118Z,98936.09
2023-05-20T03:10:50.186Z,98940.63
2023-05-20T03:13:16.737Z,98941.66
2023-05-20T03:15:45.503Z,98939.53
2023-05-20T03:18:12.710Z,98932.03
2023-05-20T03:20:40.115Z,98934.97
2023-05-20T03:23:06.639Z,98929.88
2023-05-20T03:25:33.431Z,98937.53
2023-05-20T03:28:00.738Z,98931.22
2023-05-20T03:30:27.997Z,98925.97
2023-05-20T03:32:58.565Z,98939.84
2023-05-20T03:35:25.829Z,98943.13
2023-05-20T03:37:53.269Z,98945.41
2023-05-20T03:40:23.971Z,98941.81
2023-05-20T03:42:52.184Z,98942.47
2023-05-20T03:45:19.202Z,98948.50
2023-05-20T03:47:45.771Z,98951.59
2023-05-20T03:50:12.346Z,98945.25
2023-05-20T03:52:40.867Z,98939.03
2023-05-20T03:55:07.932Z,98943.78
2023-05-20T03:57:34.513Z,98940.19
2023-05-20T04:00:02.383Z,98939.22
2023-05-20T04:02:30.269Z,98942.63
2023-05-20T04:04:57.810Z,98937.91
2023-05-20T04:07:24.430Z,98937.25
2023-05-20T04:09:52.204Z,98935.78
2023-05-20T04:12:19.420Z,98934.16
2023-05-20T04:14:46.002Z,98938.06
2023-05-20T04:17:12.552Z,98932.84
2023-05-20T04:19:39.052Z,98928.28
2023-05-20T04:22:05.779Z,98930.25
2023-05-20T04:24:32.284Z,98939.38
2023-05-20T04:26:58.840Z,98932.84
2023-05-20T04:29:25.396Z,98935.59
2023-05-20T04:31:52.224Z,98933.63
2023-05-20T04:34:20.143Z,98919.78
2023-05-20T04:36:47.134Z,98926.13
2023-05-20T04:39:13.980Z,98929.72
2023-05-20T04:41:40.569Z,98920.91
2023-05-20T04:44:07.313Z,98927.75
2023-05-20T04:46:33.984Z,98926.94
2023-05-20T04:49:00.606Z,98918.78
2023-05-20T04:51:27.130Z,98920.84
2023-05-20T04:53:53.715Z,98923.78
2023-05-20T04:56:20.827Z,98918.47
2023-05-20T04:58:47.436Z,98917.31
2023-05-20T05:01:14.244Z,98920.81
2023-05-20T05:03:40.774Z,98922.44
2023-05-20T05:06:07.303Z,98930.31
2023-05-20T05:08:33.826Z,98921.69
2023-05-20T05:11:00.589Z,98925.38
2023-05-20T05:13:27.141Z,98919.28
2023-05-20T05:16:02.932Z,98918.47
2023-05-20T05:18:29.512Z,98917.03
2023-05-20T05:21:02.642Z,98914.09
2023-05-20T05:23:29.222Z,98921.13
2023-05-20T05:25:55.793Z,98921.28
2023-05-20T05:28:22.323Z,98912.19
2023-05-20T05:30:48.979Z,98919.81
2023-05-20T05:33:15.811Z,98919.69
2023-05-20T05:35:42.589Z,98922.47
2023-05-20T05:38:09.335Z,98923.63
2023-05-20T05:40:36.152Z,98922.91
2023-05-20T05:43:02.658Z,98920.31
2023-05-20T05:45:29.207Z,98922.28
2023-05-20T05:47:55.786Z,98921.47
2023-05-20T05:50:22.344Z,98916.13
2023-05-20T05:52:48.860Z,98917.50
2023-05-20T05:55:15.516Z,98911.75
2023-05-20T05:57:42.311Z,98920.91
2023-05-20T06:00:09.365Z,98921.31
2023-05-20T06:02:36.379Z,98916.13
2023-05-20T06:05:03.912Z,98918.38
2023-05-20T06:07:30.429Z,98928.59
2023-05-20T06:09:57.117Z,98920.31
2023-05-20T06:12:23.660Z,98922.41
2023-05-20T06:14:50.294Z,98921.69
2023-05-20T06:17:16.847Z,98932.03
2023-05-20T06:19:43.374Z,98924.97
2023-05-20T06:22:09.925Z,98931.56
2023-05-20T06:24:36.508Z,98928.72
2023-05-20T06:27:03.200Z,98924.13
2023-05-20T06:29:29.799Z,98932.50
2023-05-20T06:31:56.661Z,98935.06
2023-05-20T06:34:23.197Z,98923.75
2023-05-20T06:36:49.722Z,98931.31
2023-05-20T06:39:16.266Z,98919.00
2023-05-20T06:41:42.976Z,98919.00
2023-05-20T06:44:09.601Z,98925.69
2023-05-20T06:46:36.217Z,98926.50
2023-05-20T06:49:03.140Z,98919.97
2023-05-20T06:51:29.723Z,98918.16
2023-05-20T06:53:56.229Z,98919.25
2023-05-20T06:56:22.800Z,98926.25
2023-05-20T06:58:51.338Z,98909.59
2023-05-20T07:01:18.600Z,98917.94
2023-05-20T07:03:45.811Z,98915.31
2023-05-20T07:06:12.378Z,98919.88
2023-05-20T07:08:38.906Z,98909.03
2023-05-20T07:11:05.794Z,98909.44
2023-05-20T07:13:32.318Z,98906.91
2023-05-20T07:15:58.959Z,98897.13
2023-05-20T07:18:25.574Z,98904.50
2023-05-20T07:20:52.522Z,98893.44
2023-05-20T07:23:19.089Z,98891.47
2023-05-20T07:25:45.691Z,98891.84
2023-05-20T07:28:12.255Z,98900.44
2023-05-20T07:30:38.784Z,98897.47
2023-05-20T07:33:05.333Z,98886.66
2023-05-20T07:35:32.887Z,98893.38
2023-05-20T07:37:59.547Z,98887.13
2023-05-20T07:40:26.464Z,98888.50
2023-05-20T07:42:53.009Z,98888.22
2023-05-20T07:45:19.524Z,98882.56
2023-05-20T07:47:46.139Z,98892.16
2023-05-20T07:50:12.707Z,98888.91
2023-05-20T07:55:08.772Z,98888.16
2023-05-20T07:57:35.276Z,98882.91
2023-05-20T08:00:01.794Z,98886.13
2023-05-20T08:02:28.385Z,98880.84
2023-05-20T08:04:55.008Z,98884.38
2023-05-20T08:07:22.318Z,98881.22
2023-05-20T08:09:48.842Z,98881.22
2023-05-20T08:12:15.538Z,98886.88
2023-05-20T08:14:42.083Z,98887.31
2023-05-20T08:17:08.622Z,98881.13
2023-05-20T08:19:35.583Z,98884.94
2023-05-20T08:22:02.535Z,98887.97
2023-05-20T08:24:29.104Z,98888.97
2023-05-20T08:26:55.671Z,98874.41
2023-05-20T08:29:22.206Z,98876.94
2023-05-20T08:31:48.709Z,98870.84
2023-05-20T08:34:15.231Z,98860.13
2023-05-20T08:36:42.326Z,98860.59
2023-05-20T08:39:08.914Z,98869.22
2023-05-20T08:41:35.443Z,98864.22
2023-05-20T08:44:02.565Z,98861.66
2023-05-20T08:46:29.137Z,98860.81
2023-05-20T08:48:55.921Z,98866.03
2023-05-20T08:51:23.910Z,98862.06
2023-05-20T08:53:50.604Z,98864.63
2023-05-20T08:56:17.940Z,98860.94
2023-05-20T08:58:44.646Z,98867.09
2023-05-20T09:01:11.320Z,98865.22
2023-05-20T09:03:37.849Z,98871.09
2023-05-20T09:06:08.337Z,98876.59
2023-05-20T09:08:34.877Z,98867.13
2023-05-20T09:11:01.399Z,98875.91
2023-05-20T09:13:28.914Z,98864.50
2023-05-20T09:15:55.463Z,98876.81
2023-05-20T09:18:22.082Z,98880.34
2023-05-20T09:20:50.909Z,98887.78
2023-05-20T09:23:19.037Z,98864.88
2023-05-20T09:25:45.690Z,98875.25
2023-05-20T09:28:12.347Z,98877.25
2023-05-20T09:30:38.922Z,98873.41
2023-05-20T09:33:05.954Z,98866.66
2023-05-20T09:35:35.299Z,98863.56
2023-05-20T09:38:01.973Z,98861.53
2023-05-20T09:40:28.926Z,98858.22
2023-05-20T09:43:01.831Z,98869.06
2023-05-20T09:45:28.459Z,98872.44
2023-05-20T09:47:55.359Z,98866.88
2023-05-20T09:50:22.337Z,98851.03
2023-05-20T09:52:52.799Z,98856.38
2023-05-20T09:55:21.790Z,98874.41
2023-05-20T09:57:48.358Z,98861.25
2023-05-20T10:00:17.286Z,98870.94
2023-05-20T10:02:45.332Z,98875.31
2023-05-20T10:05:33.392Z,98870.31
2023-05-20T10:08:12.435Z,98868.06
2023-05-20T10:10:54.357Z,98852.66
2023-05-20T10:13:43.285Z,98851.19
2023-05-20T10:16:18.011Z,98862.94
2023-05-20T10:19:01.222Z,98864.13
2023-05-20T10:21:27.769Z,98883.53
2023-05-20T10:23:54.316Z,98878.50
2023-05-20T10:26:22.364Z,98863.41
2023-05-20T10:28:48.901Z,98870.00
2023-05-20T10:31:17.321Z,98865.13
2023-05-20T10:33:44.990Z,98873.00
2023-05-20T10:36:21.702Z,98881.75
2023-05-20T10:38:58.416Z,98871.75
2023-05-20T10:41:26.975Z,98873.94
2023-05-20T10:44:03.610Z,98872.13
2023-05-20T10:46:41.909Z,98868.50
2023-05-20T10:49:22.477Z,98859.09
2023-05-20T10:51:51.561Z,98863.75
2023-05-20T10:54:18.183Z,98865.06
2023-05-20T10:56:53.999Z,98844.03
2023-05-20T10:59:21.691Z,98849.47
2023-05-20T11:01:48.511Z,98848.03
2023-05-20T11:04:16.126Z,98852.19
2023-05-20T11:06:50.438Z,98843.28
2023-05-20T11:09:17.137Z,98849.16
2023-05-20T11:11:43.659Z,98837.28
2023-05-20T11:14:13.644Z,98839.91
2023-05-20T11:16:40.680Z,98825.84
2023-05-20T11:19:08.721Z,98825.69
2023-05-20T11:21:35.352Z,98825.88
2023-05-20T11:24:02.116Z,98825.53
2023-05-20T11:26:29.346Z,98825.56
2023-05-20T11:28:56.247Z,98817.91
2023-05-20T11:31:24.517Z,98818.16
2023-05-20T11:33:51.101Z,98810.03
2023-05-20T11:36:27.515Z,98812.75
2023-05-20T11:38:55.485Z,98815.31
2023-05-20T11:41:25.638Z,98814.25
2023-05-20T11:43:55.735Z,98824.25
2023-05-20T11:46:22.378Z,98822.09
2023-05-20T11:48:53.946Z,98810.63
2023-05-20T11:51:29.954Z,98805.44
2023-05-20T11:54:01.460Z,98805.13
2023-05-20T11:56:31.720Z,98789.59
2023-05-20T11:58:59.582Z,98782.16
2023-05-20T12:01:27.968Z,98782.31
2023-05-20T12:03:54.949Z,98779.25
2023-05-20T12:06:21.899Z,98776.50
2023-05-20T12:08:48.460Z,98788.69
2023-05-20T12:11:15.217Z,98784.91
2023-05-20T12:13:41.807Z,98770.75
2023-05-20T12:16:08.395Z,98771.31
2023-05-20T12:18:34.936Z,98772.91
2023-05-20T12:21:01.503Z,98767.09
2023-05-20T12:23:30.659Z,98770.41
2023-05-20T12:25:57.201Z,98766.66
2023-05-20T12:28:23.731Z,98781.94
2023-05-20T12:30:50.282Z,98773.16
2023-05-20T12:33:16.797Z,98766.38
2023-05-20T12:35:43.558Z,98776.31
2023-05-20T12:38:10.325Z,98769.75
2023-05-20T12:40:37.220Z,98753.75
2023-05-20T12:43:04.571Z,98761.53
2023-05-20T12:45:31.081Z,98755.66
2023-05-20T12:47:57.733Z,98755.72
2023-05-20T12:50:24.438Z,98761.16
2023-05-20T12:52:51.190Z,98763.63
2023-05-20T12:55:17.685Z,98755.44
2023-05-20T12:57:44.378Z,98744.88
2023-05-20T13:00:11.412Z,98740.41
2023-05-20T13:02:39.986Z,98739.59
2023-05-20T13:05:06.901Z,98746.63
2023-05-20T13:07:33.689Z,98744.13
2023-05-20T13:10:00.229Z,98740.84
2023-05-20T13:12:26.773Z,98741.53
2023-05-20T13:14:53.265Z,98737.00
2023-05-20T13:17:19.787Z,98748.13
2023-05-20T13:19:46.372Z,98742.75
2023-05-20T13:22:12.922Z,98740.00
2023-05-20T13:24:39.415Z,98733.09
2023-05-20T13:27:06.274Z,98745.09
2023-05-20T13:29:32.916Z,98733.72
2023-05-20T13:32:01.617Z,98729.22
2023-05-20T13:34:28.586Z,98730.38
2023-05-20T13:36:55.236Z,98728.94
2023-05-20T13:39:21.764Z,98730.81
2023-05-20T13:41:48.277Z,98726.38
2023-05-20T13:44:14.825Z,98714.81
2023-05-20T13:46:41.546Z,98707.16
2023-05-20T13:49:08.312Z,98708.06
2023-05-20T13:51:34.878Z,98712.97
2023-05-20T13:54:01.467Z,98702.47
2023-05-20T13:56:28.405Z,98707.81
2023-05-20T13:58:54.965Z,98705.22
2023-05-20T14:01:21.547Z,98711.63
2023-05-20T14:03:48.194Z,98713.09
2023-05-20T14:06:18.598Z,98706.44
2023-05-20T14:08:46.136Z,98687.59
2023-05-20T14:11:12.803Z,98691.28
2023-05-20T14:13:39.645Z,98697.00
2023-05-20T14:16:06.312Z,98695.06
2023-05-20T14:18:32.884Z,98703.34
2023-05-20T14:20:59.677Z,98700.69
2023-05-20T14:23:26.180Z,98693.31
2023-05-20T14:25:52.692Z,98699.06
2023-05-20T14:28:19.215Z,98699.06
2023-05-20T14:30:45.743Z,98695.06
2023-05-20T14:33:12.418Z,98680.78
2023-05-20T14:35:38.967Z,98686.69
2023-05-20T14:38:05.468Z,98682.13
2023-05-20T14:40:32.020Z,98688.22
2023-05-20T14:42:58.575Z,98690.84
2023-05-20T14:45:25.097Z,98685.69
2023-05-20T14:47:51.686Z,98686.66
2023-05-20T14:50:18.313Z,98684.84
2023-05-20T14:52:44.808Z,98684.84
2023-05-20T14:55:11.391Z,98684.94
2023-05-20T14:57:37.984Z,98689.25
2023-05-20T15:00:05.050Z,98694.53
2023-05-20T15:02:31.774Z,98699.25
2023-05-20T15:04:58.347Z,98689.25
2023-05-20T15:07:24.893Z,98684.66
2023-05-20T15:09:51.762Z,98693.56
2023-05-20T15:12:18.263Z,98675.00
2023-05-20T15:14:44.836Z,98679.22
2023-05-20T15:17:11.763Z,98687.72
2023-05-20T15:19:41.261Z,98691.38
2023-05-20T15:22:08.146Z,98692.19
2023-05-20T15:24:34.672Z,98692.50
2023-05-20T15:27:01.221Z,98690.22
2023-05-20T15:29:27.738Z,98687.94
2023-05-20T15:31:54.280Z,98688.69
2023-05-20T15:34:21.005Z,98678.03
2023-05-20T15:36:47.564Z,98670.53
2023-05-20T15:39:14.095Z,98672.03
2023-05-20T15:41:42.355Z,98666.94
2023-05-20T15:44:09.005Z,98649.97
2023-05-20T15:46:35.724Z,98662.81
2023-05-20T15:49:02.351Z,98661.16
2023-05-20T15:51:28.894Z,98667.59
2023-05-20T15:53:55.468Z,98663.31
2023-05-20T15:56:22.211Z,98656.09
2023-05-20T15:58:48.810Z,98657.94
2023-05-20T16:01:15.488Z,98660.34
2023-05-20T16:03:42.936Z,98654.63
2023-05-20T16:06:10.847Z,98656.31
2023-05-20T16:08:37.668Z,98656.09
2023-05-20T16:11:04.610Z,98654.97
2023-05-20T16:13:31.525Z,98655.78
2023-05-20T16:15:58.159Z,98649.38
2023-05-20T16:18:24.915Z,98644.09
2023-05-20T16:20:51.462Z,98649.69
2023-05-20T16:23:18.023Z,98649.69
2023-05-20T16:25:44.531Z,98639.38
2023-05-20T16:28:11.091Z,98639.78
2023-05-20T16:30:37.593Z,98642.03
2023-05-20T16:33:04.144Z,98637.34
2023-05-20T16:35:30.731Z,98631.63
2023-05-20T16:37:57.294Z,98631.38
2023-05-20T16:40:23.828Z,98632.03
2023-05-20T16:42:50.333Z,98628.97
2023-05-20T16:45:16.887Z,98628.97
2023-05-20T16:47:43.470Z,98627.44
2023-05-20T16:50:10.141Z,98630.13
2023-05-20T16:52:37.851Z,98632.94
2023-05-20T16:55:07.896Z,98615.81
2023-05-20T16:57:35.000Z,98618.88
2023-05-20T17:00:01.638Z,98614.78
2023-05-20T17:02:28.202Z,98624.25
2023-05-20T17:04:54.764Z,98616.59
2023-05-20T17:07:21.276Z,98620.56
2023-05-20T17:09:47.836Z,98622.06
2023-05-20T17:12:14.403Z,98633.66
2023-05-20T17:14:40.922Z,98635.16
2023-05-20T17:17:09.343Z,98628.81
2023-05-20T17:19:36.217Z,98628.16
2023-05-20T17:22:02.761Z,98630.94
2023-05-20T17:24:29.277Z,98621.00
2023-05-20T17:26:56.169Z,98624.19
2023-05-20T17:29:22.680Z,98618.59
2023-05-20T17:31:49.180Z,98621.69
2023-05-20T17:34:15.889Z,98624.97
2023-05-20T17:36:42.795Z,98625.28
2023-05-20T17:39:09.756Z,98611.25
2023-05-20T17:41:36.388Z,98622.72
2023-05-20T17:44:02.904Z,98623.16
2023-05-20T17:46:29.437Z,98623.97
2023-05-20T17:48:56.782Z,98631.63
2023-05-20T17:51:23.349Z,98629.56
2023-05-20T17:53:49.893Z,98619.19
2023-05-20T17:56:16.419Z,98630.06
2023-05-20T17:58:44.945Z,98633.81
2023-05-20T18:01:11.560Z,98624.78
2023-05-20T18:03:39.902Z,98635.16
2023-05-20T18:06:06.696Z,98642.34
2023-05-20T18:08:33.830Z,98630.13
2023-05-20T18:11:00.393Z,98633.38
2023-05-20T18:13:26.905Z,98629.63
2023-05-20T18:15:53.517Z,98627.50
2023-05-20T18:18:20.049Z,98622.16
2023-05-20T18:20:46.629Z,98620.47
2023-05-20T18:23:13.204Z,98629.66
2023-05-20T18:25:41.162Z,98624.44
2023-05-20T18:28:09.711Z,98625.16
2023-05-20T18:30:36.608Z,98620.75
2023-05-20T18:33:03.436Z,98625.16
2023-05-20T18:35:29.979Z,98625.94
2023-05-20T18:37:56.550Z,98626.84
2023-05-20T18:40:23.095Z,98625.69
2023-05-20T18:42:49.638Z,98626.22
2023-05-20T18:45:16.204Z,98624.69
2023-05-20T18:47:42.755Z,98632.09
2023-05-20T18:50:09.715Z,98627.44
2023-05-20T18:52:36.379Z,98625.91
2023-05-20T18:55:02.895Z,98626.84
2023-05-20T18:57:29.531Z,98620.41
2023-05-20T18:59:56.364Z,98622.31
2023-05-20T19:02:23.011Z,98618.72
2023-05-20T19:04:49.576Z,98625.63
2023-05-20T19:07:16.289Z,98630.06
2023-05-20T19:09:42.797Z,98626.53
2023-05-20T19:12:09.329Z,98622.28
2023-05-20T19:14:36.182Z,98623.03
2023-05-20T19:17:03.185Z,98621.53
2023-05-20T19:19:29.796Z,98624.53
2023-05-20T19:21:56.364Z,98619.94
2023-05-20T19:24:23.655Z,98620.56
2023-05-20T19:26:50.177Z,98617.16
2023-05-20T19:29:16.735Z,98625.31
2023-05-20T19:31:43.297Z,98627.97
2023-05-20T19:34:10.203Z,98634.16
2023-05-20T19:36:38.235Z,98633.78
2023-05-20T19:39:04.919Z,98624.97
2023-05-20T19:41:31.497Z,98631.09
2023-05-20T19:43:58.042Z,98631.72
2023-05-20T19:46:24.589Z,98627.03
2023-05-20T19:48:51.153Z,98627.31
2023-05-20T19:51:17.854Z,98633.06
2023-05-20T19:53:44.419Z,98634.69
2023-05-20T19:56:12.461Z,98632.75
2023-05-20T19:58:38.992Z,98627.16
2023-05-20T20:01:06.673Z,98621.59
2023-05-20T20:03:34.317Z,98618.16
2023-05-20T20:06:00.968Z,98615.97
2023-05-20T20:08:27.514Z,98608.09
2023-05-20T20:10:54.060Z,98611.47
2023-05-20T20:13:20.883Z,98616.59
2023-05-20T20:15:47.415Z,98613.09
2023-05-20T20:18:14.169Z,98610.31
2023-05-20T20:20:40.707Z,98617.50
2023-05-20T20:23:07.962Z,98613.25
2023-05-20T20:25:38.746Z,98617.59
2023-05-20T20:28:08.210Z,98616.84
2023-05-20T20:30:35.213Z,98603.34
2023-05-20T20:33:04.915Z,98612.94
2023-05-20T20:35:31.487Z,98607.47
2023-05-20T20:37:57.986Z,98607.53
2023-05-20T20:40:25.479Z,98599.53
2023-05-20T20:42:54.544Z,98609.97
2023-05-20T20:45:24.543Z,98607.72
2023-05-20T20:47:54.782Z,98602.63
2023-05-20T20:50:21.767Z,98604.91
2023-05-20T20:52:48.281Z,98611.31
2023-05-20T20:55:14.858Z,98611.72
2023-05-20T20:57:41.960Z,98611.88
2023-05-20T21:00:21.018Z,98609.63
2023-05-20T21:02:48.130Z,98610.78
2023-05-20T21:05:16.684Z,98593.75
2023-05-20T21:07:46.046Z,98596.91
2023-05-20T21:10:12.954Z,98593.75
2023-05-20T21:12:39.520Z,98589.00
2023-05-20T21:15:06.623Z,98595.41
2023-05-20T21:17:33.198Z,98588.47
2023-05-20T21:19:59.724Z,98589.63
2023-05-20T21:22:26.251Z,98579.06
2023-05-20T21:24:52.773Z,98589.41
2023-05-20T21:27:19.292Z,98583.41
2023-05-20T21:29:45.876Z,98585.00
2023-05-20T21:32:12.418Z,98584.13
2023-05-20T21:34:38.946Z,98580.63
2023-05-20T21:37:05.541Z,98572.38
2023-05-20T21:39:32.071Z,98575.78
2023-05-20T21:41:58.588Z,98574.81
2023-05-20T21:44:25.295Z,98572.47
2023-05-20T21:46:51.890Z,98569.03
2023-05-20T21:49:18.458Z,98565.25
2023-05-20T21:51:45.042Z,98570.56
2023-05-20T21:54:11.590Z,98565.25
2023-05-20T21:56:39.027Z,98565.72
2023-05-20T21:59:05.711Z,98569.31
2023-05-20T22:01:32.515Z,98566.81
2023-05-20T22:03:59.302Z,98558.31
2023-05-20T22:06:26.411Z,98561.50
2023-05-20T22:08:53.058Z,98560.78
2023-05-20T22:11:19.911Z,98554.19
2023-05-20T22:13:46.473Z,98552.75
2023-05-20T22:16:14.188Z,98552.03
2023-05-20T22:18:41.334Z,98548.00
2023-05-20T22:21:08.036Z,98540.31
2023-05-20T22:23:34.718Z,98544.72
2023-05-20T22:26:01.528Z,98536.81
2023-05-20T22:28:28.044Z,98539.28
2023-05-20T22:30:54.724Z,98528.38
2023-05-20T22:33:22.713Z,98530.09
2023-05-20T22:35:49.424Z,98523.66
2023-05-20T22:38:15.996Z,98528.44
2023-05-20T22:40:42.496Z,98520.78
2023-05-20T22:43:09.004Z,98507.63
2023-05-20T22:45:35.794Z,98507.84
2023-05-20T22:48:03.681Z,98511.53
2023-05-20T22:50:30.314Z,98510.34
2023-05-20T22:52:56.898Z,98504.16
2023-05-20T22:55:23.889Z,98495.44
2023-05-20T22:57:50.530Z,98494.13
2023-05-20T23:00:18.086Z,98500.25
2023-05-20T23:02:45.701Z,98506.28
2023-05-20T23:05:12.627Z,98490.00
2023-05-20T23:07:39.138Z,98493.06
2023-05-20T23:10:05.904Z,98495.13
2023-05-20T23:12:32.443Z,98492.00
2023-05-20T23:14:58.958Z,98485.31
2023-05-20T23:17:25.581Z,98478.94
2023-05-20T23:19:52.139Z,98487.81
2023-05-20T23:22:18.828Z,98482.44
2023-05-20T23:24:45.346Z,98479.28
2023-05-20T23:27:11.846Z,98477.50
2023-05-20T23:29:38.430Z,98479.28
2023-05-20T23:32:05.146Z,98473.75
2023-05-20T23:34:31.682Z,98482.66
2023-05-20T23:36:58.205Z,98483.72
2023-05-20T23:39:24.710Z,98479.19
2023-05-20T23:41:51.460Z,98480.59
2023-05-20T23:44:17.995Z,98461.97
2023-05-20T23:46:44.944Z,98473.75
2023-05-20T23:49:12.601Z,98461.72
2023-05-20T23:51:39.123Z,98467.28
2023-05-20T23:54:05.984Z,98461.50
2023-05-20T23:56:32.499Z,98460.13
2023-05-20T23:58:59.008Z,98456.34
